Lew Beach, New York
Current Conditions -  °F | °C
As of 8:55 PM on Saturday 20 Dec 2014 (Local Time) from KMSV Reporting Station
Overcast Overcast  
Wind Chill: 18°   Ceiling: 1500
Heat Index: 25°   Visibility: 10mi
Dew Point: 19°   Wind: 6mph
Humidity: 80%   Direction: 330°NNW
Pressure: 30.23"   Gusts: NA
Location:  41.9041°N, 74.7692°W
Report Text: KMSV 210155Z AUTO 33005KT 10SM OVC015 M04/M07 A3023 RMK AO1
Loading
Personal Weather Stations






























Interactive Weather Map New forecast layout! Learn more

10-Day Weather Forecast

Advertisements
Track Severe Weather on mobile